KLGF Airport (Laguna Aaf (Yuma Proving Ground)) Information

FAA: LGF - ICAO: KLGF

KLGF Airport Location

State Arizona
County Yuma
City Yuma Proving Ground(Yuma)
KLGF Airport is 12 miles northeast of Yuma Proving Ground(Yuma), AZ.
Latitude 32-51-52.5063N
Longitude 114-23-34.7198W
Elevation 432ft

KLGF Airport METARs

METAR KLGF 032158Z AUTO 00000KT 10SM CLR 27/M04 A2996 RMK AO2 SLP143 T02661043 $
Altimeter 29.96"
Temperature 26.6°C (79.9°F)
Wind 0° at 0KT
Clouds Skies are clear.
Visibility 10.0mi
Time observed: 2021-12-03T21:58:00Z

KLGF Airport Details

Status Operational
Activation N/A
Ownership Military - Army
Usage Private
Chart PHOENIX
ATC on-site Yes
Beacon schedule sunset-sunrise
Beacon color clear green

KLGF Airport Contacts

Owner US ARMY AERONAUTICAL SVCS AGENCY
Owner address N/A, FT BELVOIR, VA 22060
Owner phone N/A
Manager GREGORY MCSHANE / GLADYS BROWN
Manager address 2356 E O'NEILL ST, BLDG 153, YUMA, AZ 85369-9114
Manager phone 928-269-3327

KLGF Airport (Laguna Aaf (Yuma Proving Ground)) Radio Frequencies

KLGF (Airport) Radio Frequencies

UNICOM N/A
Common traffic advisory frequency (CTAF) 126.2